createdAt,value
2022-11-19T00:00:00.262Z,24.92
2022-11-19T00:06:13.928Z,25.90
2022-11-19T00:12:34.346Z,27.73
2022-11-19T00:18:36.265Z,24.95
2022-11-19T00:24:39.608Z,24.08
2022-11-19T00:30:47.922Z,22.80
2022-11-19T00:36:51.029Z,20.45
2022-11-19T00:43:11.348Z,18.90
2022-11-19T00:49:13.253Z,17.70
2022-11-19T00:55:15.188Z,18.45
2022-11-19T01:01:19.415Z,18.13
2022-11-19T01:07:21.318Z,18.50
2022-11-19T01:13:35.507Z,17.70
2022-11-19T01:19:37.389Z,16.73
2022-11-19T01:25:39.580Z,15.70
2022-11-19T01:31:41.485Z,15.65
2022-11-19T01:37:43.358Z,14.93
2022-11-19T01:43:50.652Z,14.38
2022-11-19T01:55:55.740Z,14.10
2022-11-19T02:01:58.198Z,13.80
2022-11-19T02:08:00.178Z,13.85
2022-11-19T02:14:20.816Z,13.70
2022-11-19T02:20:36.187Z,11.88
2022-11-19T02:27:12.297Z,12.52
2022-11-19T02:33:28.999Z,11.93
2022-11-19T02:39:54.186Z,11.63
2022-11-19T02:46:08.653Z,11.93
2022-11-19T02:52:11.855Z,12.45
2022-11-19T02:58:39.923Z,12.45
2022-11-19T03:04:41.938Z,12.95
2022-11-19T03:10:59.138Z,12.27
2022-11-19T03:17:21.663Z,11.70
2022-11-19T03:23:37.687Z,13.13
2022-11-19T03:29:44.090Z,13.40
2022-11-19T03:35:53.436Z,13.13
2022-11-19T03:41:57.393Z,13.43
2022-11-19T03:48:02.409Z,12.02
2022-11-19T03:54:04.484Z,12.90
2022-11-19T04:00:06.969Z,12.50
2022-11-19T04:06:14.336Z,13.20
2022-11-19T04:12:17.616Z,13.20
2022-11-19T04:18:19.566Z,11.10
2022-11-19T04:24:21.507Z,12.57
2022-11-19T04:30:23.407Z,12.73
2022-11-19T04:36:25.308Z,12.38
2022-11-19T04:42:27.174Z,11.63
2022-11-19T04:48:29.038Z,12.65
2022-11-19T04:54:30.971Z,10.93
2022-11-19T05:00:32.898Z,11.38
2022-11-19T05:06:34.851Z,11.15
2022-11-19T05:12:36.733Z,10.30
2022-11-19T05:18:38.593Z,12.32
2022-11-19T05:24:40.447Z,11.20
2022-11-19T05:30:42.352Z,11.02
2022-11-19T05:36:44.501Z,12.85
2022-11-19T05:42:46.478Z,12.70
2022-11-19T05:48:48.320Z,13.07
2022-11-19T05:54:50.239Z,12.38
2022-11-19T06:00:56.331Z,12.40
2022-11-19T06:06:58.299Z,12.67
2022-11-19T06:13:00.242Z,12.30
2022-11-19T06:19:02.202Z,12.55
2022-11-19T06:25:08.003Z,12.25
2022-11-19T06:31:09.905Z,12.35
2022-11-19T06:37:12.007Z,13.52
2022-11-19T06:43:13.901Z,12.80
2022-11-19T06:49:20.130Z,14.60
2022-11-19T06:55:22.629Z,13.93
2022-11-19T07:01:24.612Z,14.32
2022-11-19T07:07:26.531Z,16.08
2022-11-19T07:13:51.053Z,15.75
2022-11-19T07:19:52.957Z,15.77
2022-11-19T07:26:01.540Z,15.32
2022-11-19T07:32:03.443Z,14.98
2022-11-19T07:38:05.318Z,14.82
2022-11-19T07:44:07.411Z,14.43
2022-11-19T07:50:09.911Z,16.08
2022-11-19T07:56:11.790Z,16.17
2022-11-19T08:02:14.847Z,15.75
2022-11-19T08:08:16.763Z,15.00
2022-11-19T08:14:18.656Z,14.70
2022-11-19T08:20:20.523Z,15.20
2022-11-19T08:26:22.867Z,17.27
2022-11-19T08:32:24.760Z,13.60
2022-11-19T08:38:26.769Z,13.60
2022-11-19T08:44:28.665Z,13.90
2022-11-19T08:50:31.754Z,13.05
2022-11-19T08:56:33.665Z,12.93
2022-11-19T09:02:35.689Z,13.80
2022-11-19T09:08:37.684Z,13.10
2022-11-19T09:14:39.588Z,12.23
2022-11-19T09:20:41.570Z,13.25
2022-11-19T09:26:46.507Z,12.07
2022-11-19T09:38:57.741Z,9.40
2022-11-19T09:45:06.484Z,9.25
2022-11-19T09:51:11.299Z,9.52
2022-11-19T09:57:18.634Z,9.93
2022-11-19T10:09:58.833Z,9.50
2022-11-19T10:16:20.415Z,7.13
2022-11-19T10:22:31.418Z,7.07
2022-11-19T10:28:38.500Z,7.32
2022-11-19T10:34:43.375Z,7.80
2022-11-19T10:40:58.920Z,7.28
2022-11-19T10:47:05.643Z,7.45
2022-11-19T10:53:16.428Z,6.97
2022-11-19T10:59:24.351Z,6.88
2022-11-19T11:05:26.438Z,17.10
2022-11-19T11:11:52.549Z,9.15
2022-11-19T11:18:06.893Z,8.23
2022-11-19T11:24:11.281Z,8.45
2022-11-19T11:30:13.769Z,11.38
2022-11-19T11:36:19.256Z,8.93
2022-11-19T11:42:24.658Z,9.05
2022-11-19T11:48:35.461Z,9.25
2022-11-19T11:54:58.664Z,17.05
2022-11-19T12:01:20.298Z,10.43
2022-11-19T12:07:52.922Z,9.52
2022-11-19T12:14:11.229Z,8.80
2022-11-19T12:20:20.954Z,8.30
2022-11-19T12:26:50.765Z,8.82
2022-11-19T12:33:06.895Z,7.00
2022-11-19T12:39:23.785Z,7.53
2022-11-19T12:45:42.263Z,7.27
2022-11-19T12:52:22.817Z,8.82
2022-11-19T12:58:39.663Z,8.35
2022-11-19T13:05:11.084Z,8.07
2022-11-19T13:11:29.267Z,8.02
2022-11-19T13:17:35.410Z,8.48
2022-11-19T13:23:40.594Z,9.23
2022-11-19T13:29:47.860Z,8.52
2022-11-19T13:35:54.037Z,7.72
2022-11-19T13:42:15.235Z,8.52
2022-11-19T13:48:31.846Z,7.65
2022-11-19T13:54:39.625Z,7.30
2022-11-19T14:00:54.304Z,8.40
2022-11-19T14:07:29.684Z,8.88
2022-11-19T14:13:42.872Z,7.18
2022-11-19T14:20:13.352Z,7.80
2022-11-19T14:26:41.155Z,6.88
2022-11-19T14:32:51.865Z,8.15
2022-11-19T14:39:00.207Z,8.30
2022-11-19T14:45:02.974Z,7.53
2022-11-19T14:51:16.755Z,8.45
2022-11-19T14:57:38.798Z,9.63
2022-11-19T15:03:48.444Z,8.27
2022-11-19T15:10:09.646Z,7.65
2022-11-19T15:16:25.178Z,7.78
2022-11-19T15:22:41.956Z,7.13
2022-11-19T15:29:02.422Z,7.97
2022-11-19T15:35:38.247Z,7.90
2022-11-19T15:42:00.539Z,7.85
2022-11-19T15:48:33.737Z,8.23
2022-11-19T15:54:37.326Z,8.07
2022-11-19T16:00:51.109Z,8.40
2022-11-19T16:06:53.186Z,9.02
2022-11-19T16:13:21.444Z,8.50
2022-11-19T16:19:23.829Z,7.78
2022-11-19T16:25:42.076Z,8.57
2022-11-19T16:31:44.609Z,8.00
2022-11-19T16:37:49.055Z,8.52
2022-11-19T16:43:51.299Z,9.13
2022-11-19T16:49:58.519Z,8.20
2022-11-19T16:56:00.612Z,22.92
2022-11-19T17:02:03.147Z,10.38
2022-11-19T17:08:19.334Z,8.48
2022-11-19T17:14:58.203Z,9.32
2022-11-19T17:21:19.710Z,9.88
2022-11-19T17:27:36.562Z,9.02
2022-11-19T17:39:48.875Z,8.93
2022-11-19T17:45:50.759Z,9.20
2022-11-19T17:51:53.091Z,9.13
2022-11-19T17:57:54.981Z,9.57
2022-11-19T18:03:56.935Z,9.57
2022-11-19T18:09:58.852Z,9.77
2022-11-19T18:16:00.786Z,9.43
2022-11-19T18:22:02.820Z,9.70
2022-11-19T18:28:04.807Z,9.70
2022-11-19T18:34:06.701Z,9.25
2022-11-19T18:40:08.977Z,9.57
2022-11-19T18:46:11.090Z,10.98
2022-11-19T18:52:16.480Z,12.40
2022-11-19T18:58:18.347Z,10.73
2022-11-19T19:04:20.275Z,10.57
2022-11-19T19:10:22.250Z,10.50
2022-11-19T19:16:24.163Z,10.75
2022-11-19T19:22:26.081Z,10.88
2022-11-19T19:28:27.920Z,11.20
2022-11-19T19:34:30.228Z,21.40
2022-11-19T19:40:32.261Z,18.67
2022-11-19T19:46:34.520Z,13.93
2022-11-19T19:52:36.453Z,11.68
2022-11-19T19:58:39.093Z,10.73
2022-11-19T20:04:41.068Z,10.60
2022-11-19T20:10:42.945Z,10.43
2022-11-19T20:16:44.809Z,11.80
2022-11-19T20:22:46.761Z,12.20
2022-11-19T20:28:53.462Z,10.90
2022-11-19T20:34:56.520Z,12.10
2022-11-19T20:40:59.501Z,12.60
2022-11-19T20:47:03.411Z,13.32
2022-11-19T20:53:05.308Z,13.15
2022-11-19T20:59:07.866Z,11.60
2022-11-19T21:05:10.109Z,12.38
2022-11-19T21:11:13.758Z,12.45
2022-11-19T21:17:15.790Z,11.80
2022-11-19T21:23:19.391Z,11.45
2022-11-19T21:29:21.459Z,15.38
2022-11-19T21:35:24.597Z,15.70
2022-11-19T21:41:26.890Z,13.93
2022-11-19T21:47:29.076Z,12.60
2022-11-19T21:53:34.403Z,13.57
2022-11-19T21:59:36.638Z,13.30
2022-11-19T22:05:41.811Z,14.35
2022-11-19T22:11:43.651Z,14.68
2022-11-19T22:17:45.932Z,12.77
2022-11-19T22:23:48.091Z,13.68
2022-11-19T22:29:50.075Z,18.17
2022-11-19T22:35:59.218Z,18.00
2022-11-19T22:42:01.373Z,15.20
2022-11-19T22:48:03.842Z,14.18
2022-11-19T22:54:08.671Z,14.52
2022-11-19T23:00:15.565Z,15.25
2022-11-19T23:06:18.104Z,15.15
2022-11-19T23:12:38.553Z,16.65
2022-11-19T23:18:49.763Z,15.82
2022-11-19T23:24:51.833Z,15.90
2022-11-19T23:30:54.223Z,17.00
2022-11-19T23:36:56.128Z,16.00
2022-11-19T23:42:58.051Z,16.75
2022-11-19T23:49:00.859Z,21.55
2022-11-19T23:55:02.866Z,20.10
